Time;durP1;ratioP1;P1;durP2;ratioP2;P2;SDS_P1;SDS_P2;PMS_P1;PMS_P2;Temp;Humidity;BMP_temperature;BMP_pressure;BME280_temperature;BME280_humidity;BME280_pressure;Samples;Min_cycle;Max_cycle;Signal;HPM_P1;HPM_P2
2023/12/14 00:00:47;;;;;;;13.00;9.27;;;;;;;;;;4988876;28;20056;-68
2023/12/14 00:03:13;;;;;;;12.73;7.93;;;;;;;;;;5003538;28;20080;-68
2023/12/14 00:05:39;;;;;;;11.13;8.10;;;;;;;;;;5006682;28;20760;-68
2023/12/14 00:08:05;;;;;;;13.52;8.20;;;;;;;;;;4989043;28;20088;-68
2023/12/14 00:10:31;;;;;;;13.75;9.05;;;;;;;;;;4988563;28;20121;-68
2023/12/14 00:12:57;;;;;;;10.32;7.55;;;;;;;;;;4999956;28;20068;-68
2023/12/14 00:15:23;;;;;;;10.68;7.80;;;;;;;;;;4988576;28;20104;-68
2023/12/14 00:17:49;;;;;;;9.88;7.43;;;;;;;;;;4989133;28;20042;-68
2023/12/14 00:20:15;;;;;;;13.27;7.95;;;;;;;;;;4988586;28;20681;-68
2023/12/14 00:22:41;;;;;;;9.85;6.93;;;;;;;;;;4988801;28;20674;-68
2023/12/14 00:25:07;;;;;;;9.85;7.13;;;;;;;;;;5006454;28;20440;-68
2023/12/14 00:27:33;;;;;;;14.05;6.85;;;;;;;;;;4981891;28;20112;-68
2023/12/14 00:29:59;;;;;;;14.15;8.05;;;;;;;;;;4988545;28;20044;-68
2023/12/14 00:32:25;;;;;;;13.32;7.22;;;;;;;;;;5006741;28;20046;-68
2023/12/14 00:34:51;;;;;;;10.32;6.45;;;;;;;;;;5005855;28;20044;-68
2023/12/14 00:37:17;;;;;;;10.00;7.10;;;;;;;;;;4989088;28;20747;-69
2023/12/14 00:39:43;;;;;;;10.18;7.85;;;;;;;;;;4984781;28;20049;-68
2023/12/14 00:42:09;;;;;;;12.05;7.32;;;;;;;;;;4988474;28;20056;-68
2023/12/14 00:44:35;;;;;;;12.98;7.45;;;;;;;;;;4988395;28;20058;-68
2023/12/14 00:47:02;;;;;;;10.73;6.63;;;;;;;;;;5006625;28;20045;-68
2023/12/14 00:49:28;;;;;;;14.32;8.05;;;;;;;;;;4987994;28;20045;-68
2023/12/14 00:51:54;;;;;;;10.35;7.22;;;;;;;;;;4988381;28;20484;-68
2023/12/14 00:54:20;;;;;;;12.52;7.75;;;;;;;;;;4987862;28;20054;-68
2023/12/14 00:56:46;;;;;;;12.02;8.02;;;;;;;;;;4988439;28;20050;-68
2023/12/14 00:59:12;;;;;;;12.88;8.23;;;;;;;;;;4987479;28;20041;-68
2023/12/14 01:01:38;;;;;;;13.30;7.10;;;;;;;;;;4988072;28;20046;-68
2023/12/14 01:04:04;;;;;;;15.05;7.85;;;;;;;;;;4988221;28;20378;-68
2023/12/14 01:06:30;;;;;;;11.50;6.70;;;;;;;;;;5004453;28;20053;-68
2023/12/14 01:08:56;;;;;;;11.82;6.93;;;;;;;;;;4988383;28;20046;-68
2023/12/14 01:11:22;;;;;;;10.40;7.28;;;;;;;;;;5005505;28;20781;-68
2023/12/14 01:13:48;;;;;;;11.90;7.40;;;;;;;;;;4987431;28;20042;-68
2023/12/14 01:16:14;;;;;;;13.63;7.60;;;;;;;;;;4987683;28;20072;-68
2023/12/14 01:18:40;;;;;;;9.77;6.70;;;;;;;;;;4987713;28;20489;-68
2023/12/14 01:21:06;;;;;;;11.05;6.93;;;;;;;;;;5005062;28;20053;-68
2023/12/14 01:23:32;;;;;;;10.80;7.72;;;;;;;;;;5004997;28;20145;-68
2023/12/14 01:25:58;;;;;;;8.38;6.75;;;;;;;;;;4986796;28;20046;-68
2023/12/14 01:28:24;;;;;;;10.68;6.55;;;;;;;;;;5004869;28;20571;-68
2023/12/14 01:30:50;;;;;;;11.50;6.70;;;;;;;;;;4987544;28;20046;-68
2023/12/14 01:33:16;;;;;;;10.68;6.88;;;;;;;;;;4987614;28;20070;-68
2023/12/14 01:35:42;;;;;;;12.93;7.80;;;;;;;;;;4987295;28;20133;-69
2023/12/14 01:38:08;;;;;;;11.00;7.95;;;;;;;;;;4986831;28;20147;-68
2023/12/14 01:40:34;;;;;;;14.02;6.95;;;5.50;99.90;;;;;;4987170;28;20485;-68
2023/12/14 01:43:07;;;;;;;10.93;6.88;;;;;;;;;;5005350;28;20038;-68
2023/12/14 01:45:33;;;;;;;12.68;6.45;;;;;;;;;;5003253;28;20053;-68
2023/12/14 01:47:59;;;;;;;9.25;6.65;;;5.40;99.90;;;;;;4987014;28;20046;-68
2023/12/14 01:50:25;;;;;;;10.00;6.85;;;;;;;;;;4987593;28;20049;-68
2023/12/14 01:52:51;;;;;;;9.63;5.50;;;;;;;;;;4987568;28;20818;-68
2023/12/14 01:55:17;;;;;;;10.63;6.55;;;;;;;;;;5004753;28;20576;-68
2023/12/14 01:57:43;;;;;;;8.90;6.40;;;;;;;;;;4987316;28;20092;-68
2023/12/14 02:00:41;;;;;;;9.35;5.95;;;5.10;99.90;;;;;;4986861;28;20116;-68
2023/12/14 02:03:07;;;;;;;10.35;6.55;;;;;;;;;;4982564;28;20160;-68
2023/12/14 02:05:33;;;;;;;11.70;7.00;;;;;;;;;;4986606;28;20591;-68
2023/12/14 02:07:59;;;;;;;9.45;6.85;;;;;;;;;;4986488;28;20047;-68
2023/12/14 02:10:25;;;;;;;6.40;5.25;;;;;;;;;;4986656;28;20052;-68
2023/12/14 02:12:51;;;;;;;7.80;5.28;;;;;;;;;;4986473;28;20572;-68
2023/12/14 02:15:17;;;;;;;7.13;5.60;;;;;;;;;;4986554;28;20070;-68
2023/12/14 02:17:43;;;;;;;8.10;5.38;;;;;;;;;;4985731;28;20060;-68
2023/12/14 02:20:09;;;;;;;8.10;5.88;;;;;;;;;;4986689;28;20049;-68
2023/12/14 02:22:54;;;;;;;6.47;5.00;;;;;;;;;;4983100;28;20045;-68
2023/12/14 02:25:21;;;;;;;7.35;5.03;;;;;;;;;;4984545;28;20046;-68
2023/12/14 02:27:47;;;;;;;6.57;5.20;;;;;;;;;;5004048;28;20488;-68
2023/12/14 02:30:13;;;;;;;6.20;5.03;;;;;;;;;;4986093;28;20126;-68
2023/12/14 02:32:40;;;;;;;7.70;4.65;;;;;;;;;;4986128;28;20518;-69
2023/12/14 02:35:06;;;;;;;6.72;4.93;;;;;;;;;;5003923;28;20045;-68
2023/12/14 02:37:33;;;;;;;7.00;4.53;;;;;;;;;;4986434;28;20136;-68
2023/12/14 02:40:00;;;;;;;7.65;5.43;;;;;;;;;;5003469;28;20707;-68
2023/12/14 02:42:26;;;;;;;6.93;4.82;;;;;;;;;;4986978;28;20061;-68
2023/12/14 02:44:52;;;;;;;8.18;5.00;;;;;;;;;;4986063;28;20041;-68
2023/12/14 02:47:18;;;;;;;7.72;5.97;;;;;;;;;;4985874;28;20129;-68
2023/12/14 02:49:44;;;;;;;8.02;6.03;;;;;;;;;;4985713;28;20064;-68
2023/12/14 02:52:10;;;;;;;10.75;6.22;;;;;;;;;;5004215;28;20046;-68
2023/12/14 02:54:40;;;;;;;9.23;6.38;;;;;;;;;;4985643;28;20041;-69
2023/12/14 02:57:06;;;;;;;11.10;6.60;;;;;;;;;;4999217;28;20062;-68
2023/12/14 02:59:32;;;;;;;10.32;6.50;;;;;;;;;;5003395;28;20124;-68
2023/12/14 03:01:58;;;;;;;12.77;5.85;;;;;;;;;;4983066;28;20050;-68
2023/12/14 03:04:24;;;;;;;11.68;7.03;;;;;;;;;;4985536;28;20053;-68
2023/12/14 03:06:50;;;;;;;13.40;6.68;;;;;;;;;;4985068;28;20049;-68
2023/12/14 03:09:18;;;;;;;12.50;5.93;;;;;;;;;;5003762;28;20141;-68
2023/12/14 03:11:44;;;;;;;11.35;7.53;;;;;;;;;;4985862;28;20812;-68
2023/12/14 03:14:11;;;;;;;10.27;6.68;;;;;;;;;;4988033;28;20054;-68
2023/12/14 03:16:37;;;;;;;12.90;7.15;;;;;;;;;;4986599;28;20054;-68
2023/12/14 03:19:03;;;;;;;9.90;6.68;;;;;;;;;;4990880;28;20049;-68
2023/12/14 03:21:29;;;;;;;13.85;6.85;;;;;;;;;;4987322;28;20046;-68
2023/12/14 03:23:55;;;;;;;12.15;6.65;;;;;;;;;;4985682;28;20516;-68
2023/12/14 03:26:21;;;;;;;12.23;7.95;;;;;;;;;;5003725;28;20133;-68
2023/12/14 03:28:47;;;;;;;13.30;7.72;;;;;;;;;;4985391;28;20046;-69
2023/12/14 03:31:13;;;;;;;14.23;7.55;;;;;;;;;;4984778;28;20081;-68
2023/12/14 03:33:40;;;;;;;15.27;7.82;;;;;;;;;;4969120;28;20081;-68
2023/12/14 03:36:06;;;;;;;12.98;7.05;;;;;;;;;;5001248;28;20061;-68
2023/12/14 03:38:32;;;;;;;15.00;8.32;;;;;;;;;;4985669;28;20555;-68
2023/12/14 03:40:58;;;;;;;15.75;8.13;;;;;;;;;;4985145;28;20045;-68
2023/12/14 03:43:24;;;;;;;14.00;7.93;;;;;;;;;;4984957;28;20053;-68
2023/12/14 03:45:50;;;;;;;17.35;8.55;;;;;;;;;;4984674;28;20053;-68
2023/12/14 03:48:16;;;;;;;18.00;8.88;;;;;;;;;;4985872;28;20149;-68
2023/12/14 03:50:42;;;;;;;15.88;8.38;;;;;;;;;;4985407;28;20046;-69
2023/12/14 03:53:09;;;;;;;16.23;8.63;;;;;;;;;;4985061;28;20151;-68
2023/12/14 03:55:35;;;;;;;17.98;7.85;;;;;;;;;;4999586;28;20638;-68
2023/12/14 03:58:01;;;;;;;14.20;8.40;;;;;;;;;;4969011;28;20042;-68
2023/12/14 04:00:27;;;;;;;16.90;8.15;;;;;;;;;;4985071;28;20038;-68
2023/12/14 04:02:53;;;;;;;16.50;8.23;;;;;;;;;;4984947;28;20409;-68
2023/12/14 04:05:19;;;;;;;16.27;7.70;;;;;;;;;;4984676;28;20045;-68
2023/12/14 04:07:45;;;;;;;17.15;9.02;;;;;;;;;;4984783;28;20042;-68
2023/12/14 04:10:12;;;;;;;19.95;8.88;;;;;;;;;;4984497;28;20049;-68
2023/12/14 04:12:39;;;;;;;16.50;8.73;;;;;;;;;;5002294;28;20148;-68
2023/12/14 04:15:06;;;;;;;15.05;7.78;;;;;;;;;;4984207;28;20061;-69
2023/12/14 04:17:32;;;;;;;15.48;8.65;;;;;;;;;;5002331;28;20429;-68
2023/12/14 04:19:58;;;;;;;17.70;7.80;;;;;;;;;;4985381;28;20475;-68
2023/12/14 04:22:24;;;;;;;21.48;8.00;;;;;;;;;;4984574;28;20602;-68
2023/12/14 04:24:51;;;;;;;14.75;8.38;;;;;;;;;;4984480;28;20054;-68
2023/12/14 04:27:17;;;;;;;13.73;7.65;;;;;;;;;;4985052;28;20061;-69
2023/12/14 04:29:43;;;;;;;14.20;7.50;;;;;;;;;;4985014;28;20129;-68
2023/12/14 04:32:09;;;;;;;12.88;7.82;;;;;;;;;;4976484;28;20082;-68
2023/12/14 04:34:35;;;;;;;16.90;7.55;;;;;;;;;;4985081;28;20551;-68
2023/12/14 04:37:02;;;;;;;16.10;8.93;;;;;;;;;;4984529;28;20076;-69
2023/12/14 04:39:28;;;;;;;13.82;7.30;;;;;;;;;;4984871;28;20413;-68
2023/12/14 04:41:54;;;;;;;15.50;7.68;;;5.30;99.90;;;;;;4986597;28;20092;-68
2023/12/14 04:44:21;;;;;;;12.80;7.90;;;;;;;;;;4988116;28;20125;-68
2023/12/14 04:46:47;;;;;;;14.15;8.10;;;;;;;;;;5005792;28;20843;-68
2023/12/14 04:49:13;;;;;;;13.88;7.18;;;;;;;;;;5005736;28;20074;-69
2023/12/14 04:51:39;;;;;;;13.68;7.75;;;;;;;;;;5005327;28;20129;-68
2023/12/14 04:54:05;;;;;;;13.48;7.38;;;;;;;;;;5005378;28;20046;-68
2023/12/14 04:56:31;;;;;;;13.95;7.68;;;;;;;;;;5005475;28;20121;-68
2023/12/14 04:58:58;;;;;;;13.35;7.80;;;;;;;;;;4987829;28;20827;-68
2023/12/14 05:01:26;;;;;;;19.63;7.35;;;;;;;;;;4988020;28;20068;-68
2023/12/14 05:03:52;;;;;;;12.65;7.82;;;;;;;;;;4987731;28;20377;-68
2023/12/14 05:06:18;;;;;;;12.70;7.05;;;;;;;;;;5005138;28;20045;-68
2023/12/14 05:08:45;;;;;;;13.50;7.60;;;;;;;;;;4987636;28;20068;-68
2023/12/14 05:11:13;;;;;;;15.48;7.30;;;;;;;;;;4987529;28;20045;-68
2023/12/14 05:13:39;;;;;;;17.38;7.72;;;;;;;;;;4987244;28;20061;-69
2023/12/14 05:16:05;;;;;;;16.67;8.40;;;;;;;;;;5005618;28;20046;-68
2023/12/14 05:18:31;;;;;;;14.13;6.95;;;;;;;;;;4988032;28;20085;-69
2023/12/14 05:20:57;;;;;;;13.48;7.80;;;;;;;;;;4987931;28;20557;-68
2023/12/14 05:23:23;;;;;;;19.38;8.20;;;;;;;;;;4987821;28;20645;-68
2023/12/14 05:25:50;;;;;;;13.65;7.35;;;;;;;;;;4987493;28;20046;-68
2023/12/14 05:28:16;;;;;;;13.20;8.15;;;;;;;;;;5005037;28;20053;-68
2023/12/14 05:30:42;;;;;;;12.07;7.25;;;;;;;;;;4986611;28;20050;-69
2023/12/14 05:33:09;;;;;;;22.05;7.80;;;;;;;;;;4987096;28;20089;-69
2023/12/14 05:35:35;;;;;;;13.35;8.18;;;;;;;;;;5004630;28;20050;-69
2023/12/14 05:38:01;;;;;;;13.80;7.72;;;;;;;;;;5004669;28;20842;-68
2023/12/14 05:40:27;;;;;;;14.88;7.70;;;;;;;;;;5004634;28;20088;-68
2023/12/14 05:42:53;;;;;;;11.18;7.38;;;;;;;;;;4986866;28;20048;-69
2023/12/14 05:45:19;;;;;;;20.95;8.75;;;;;;;;;;4987167;28;20077;-68
2023/12/14 05:47:45;;;;;;;16.92;7.82;;;;;;;;;;4986591;28;20069;-68
2023/12/14 05:50:12;;;;;;;15.50;7.72;;;;;;;;;;4987000;28;20045;-68
2023/12/14 05:52:40;;;;;;;14.18;8.50;;;;;;;;;;4982361;28;20045;-68
2023/12/14 05:55:08;;;;;;;16.83;9.27;;;;;;;;;;4986510;28;20084;-68
2023/12/14 05:57:34;;;;;;;14.68;8.05;;;;;;;;;;4986537;28;21232;-69
2023/12/14 06:00:00;;;;;;;17.27;8.23;;;;;;;;;;5004811;28;20117;-68
2023/12/14 06:02:26;;;;;;;14.88;8.88;;;;;;;;;;4986501;28;20141;-68
2023/12/14 06:04:52;;;;;;;15.23;8.38;;;;;;;;;;5004199;28;20058;-69
2023/12/14 06:07:18;;;;;;;17.10;8.50;;;;;;;;;;5004684;28;20144;-68
2023/12/14 06:09:44;;;;;;;22.38;8.30;;;;;;;;;;4986867;28;20049;-68
2023/12/14 06:12:10;;;;;;;21.92;8.88;;;;;;;;;;4984509;28;21270;-68
2023/12/14 06:14:36;;;;;;;16.05;7.90;;;;;;;;;;4985783;28;20081;-68
2023/12/14 06:17:02;;;;;;;16.83;8.20;;;;;;;;;;4986314;28;20593;-68
2023/12/14 06:19:28;;;;;;;17.45;8.32;;;;;;;;;;4986248;28;20050;-68
2023/12/14 06:21:54;;;;;;;15.48;8.32;;;;;;;;;;4985802;28;20052;-68
2023/12/14 06:24:22;;;;;;;17.48;9.25;;;;;;;;;;4985962;28;20049;-68
2023/12/14 06:26:48;;;;;;;16.58;8.45;;;;;;;;;;4985854;28;20327;-68
2023/12/14 06:29:14;;;;;;;17.42;8.43;;;;;;;;;;4985679;28;20052;-69
2023/12/14 06:31:40;;;;;;;19.13;8.70;;;;;;;;;;4985714;28;20049;-69
2023/12/14 06:34:06;;;;;;;17.90;8.18;;;;;;;;;;4991262;28;20382;-68
2023/12/14 06:36:33;;;;;;;17.98;8.30;;;;;;;;;;4985831;28;20042;-69
2023/12/14 06:38:59;;;;;;;18.27;9.80;;;;;;;;;;4985971;28;20064;-69
2023/12/14 06:41:26;;;;;;;17.33;9.18;;;;;;;;;;4985586;28;20066;-68
2023/12/14 06:43:52;;;;;;;17.95;9.77;;;;;;;;;;4985652;28;20056;-68
2023/12/14 06:46:19;;;;;;;17.55;8.60;;;;;;;;;;4980228;28;20762;-69
2023/12/14 06:48:45;;;;;;;17.40;9.10;;;;;;;;;;4985725;28;20042;-69
2023/12/14 06:51:11;;;;;;;19.67;8.65;;;;;;;;;;4985158;28;20050;-69
2023/12/14 06:53:39;;;;;;;18.48;10.13;;;;;;;;;;4978002;28;20042;-68
2023/12/14 06:56:09;;;;;;;17.88;9.45;;;;;;;;;;4985428;28;20375;-68
2023/12/14 06:58:35;;;;;;;15.23;8.95;;;;;;;;;;4985781;28;20077;-69
2023/12/14 07:01:01;;;;;;;16.33;8.02;;;;;;;;;;4978937;28;20045;-69
2023/12/14 07:03:27;;;;;;;18.30;8.90;;;;;;;;;;4984904;28;20057;-69
2023/12/14 07:05:53;;;;;;;18.05;8.80;;;;;;;;;;5002686;28;20095;-69
2023/12/14 07:08:19;;;;;;;17.85;9.32;;;;;;;;;;4985106;28;20038;-69
2023/12/14 07:10:45;;;;;;;16.05;8.48;;;;;;;;;;4982758;28;20037;-69
2023/12/14 07:13:11;;;;;;;18.02;8.77;;;;;;;;;;4981398;28;20096;-69
2023/12/14 07:15:37;;;;;;;19.95;9.93;;;;;;;;;;4983730;28;20050;-69
2023/12/14 07:18:03;;;;;;;16.58;8.55;;;;;;;;;;4984695;28;20060;-69
2023/12/14 07:20:29;;;;;;;14.52;8.35;;;;;;;;;;4983717;28;20061;-69
2023/12/14 07:22:55;;;;;;;15.90;8.55;;;;;;;;;;4984413;28;20127;-69
2023/12/14 07:25:21;;;;;;;21.33;9.75;;;;;;;;;;5000752;28;20061;-68
2023/12/14 07:27:47;;;;;;;17.25;8.88;;;;;;;;;;4980356;28;20056;-69
2023/12/14 07:30:14;;;;;;;17.65;10.18;;;;;;;;;;4983747;28;20764;-69
2023/12/14 07:32:40;;;;;;;17.65;9.68;;;;;;;;;;5002183;28;20045;-69
2023/12/14 07:35:06;;;;;;;16.52;9.05;;;;;;;;;;4984945;28;20495;-68
2023/12/14 07:37:32;;;;;;;18.30;9.88;;;5.20;99.90;;;;;;4983662;28;20409;-68
2023/12/14 07:40:00;;;;;;;16.48;9.45;;;5.30;99.90;;;;;;5002464;28;20073;-68
2023/12/14 07:42:26;;;;;;;17.42;9.32;;;;;;;;;;4984494;28;20050;-70
2023/12/14 07:44:54;;;;;;;16.58;8.85;;;;;;;;;;4980461;28;20410;-70
2023/12/14 07:47:20;;;;;;;17.85;10.27;;;;;;;;;;4983237;28;20053;-69
2023/12/14 07:49:46;;;;;;;14.90;8.95;;;;;;;;;;5001174;28;20045;-69
2023/12/14 07:52:13;;;;;;;19.10;9.85;;;;;;;;;;4992623;28;20041;-69
2023/12/14 07:54:39;;;;;;;19.25;9.52;;;;;;;;;;5008570;28;20041;-69
2023/12/14 07:57:05;;;;;;;15.23;9.15;;;;;;;;;;4984116;28;20240;-69
2023/12/14 07:59:32;;;;;;;15.65;9.43;;;;;;;;;;4985035;28;20497;-69
2023/12/14 08:01:58;;;;;;;19.52;9.40;;;;;;;;;;5002938;28;20113;-70
2023/12/14 08:04:24;;;;;;;17.73;9.23;;;;;;;;;;5000910;28;20042;-70
2023/12/14 08:06:51;;;;;;;23.42;10.68;;;;;;;;;;4983042;28;20368;-69
2023/12/14 08:09:17;;;;;;;17.42;9.43;;;;;;;;;;4999090;28;20045;-70
2023/12/14 08:11:42;;;;;;;16.70;9.18;;;5.40;99.90;;;;;;4980213;28;20104;-69
2023/12/14 08:14:08;;;;;;;16.83;9.48;;;5.40;99.90;;;;;;4993012;28;20062;-70
2023/12/14 08:16:33;;;;;;;17.75;10.05;;;5.50;99.90;;;;;;4983847;28;20050;-70
2023/12/14 08:18:59;;;;;;;17.48;9.63;;;;;;;;;;4988382;28;20037;-69
2023/12/14 08:21:25;;;;;;;19.75;9.98;;;;;;;;;;5006047;28;20049;-70
2023/12/14 08:23:51;;;;;;;15.65;9.13;;;;;;;;;;4984534;28;20041;-69
2023/12/14 08:26:18;;;;;;;17.45;9.93;;;;;;;;;;4993005;28;20055;-70
2023/12/14 08:28:44;;;;;;;17.13;9.93;;;;;;;;;;4988507;28;20225;-70
2023/12/14 08:31:11;;;;;;;20.42;9.70;;;;;;;;;;4985358;28;20054;-70
2023/12/14 08:33:37;;;;;;;18.55;9.68;;;;;;;;;;4988229;28;20426;-70
2023/12/14 08:36:05;;;;;;;24.98;9.77;;;;;;;;;;4988082;28;20042;-70
2023/12/14 08:38:31;;;;;;;20.77;10.10;;;;;;;;;;4984314;28;20049;-69
2023/12/14 08:40:57;;;;;;;20.10;9.52;;;;;;;;;;4988149;28;20120;-70
2023/12/14 08:43:23;;;;;;;19.52;10.25;;;;;;;;;;5006026;28;20540;-70
2023/12/14 08:45:49;;;;;;;22.58;10.70;;;;;;;;;;5004726;28;20041;-70
2023/12/14 08:48:15;;;;;;;22.25;8.88;;;;;;;;;;5002833;28;20053;-70
2023/12/14 08:50:41;;;;;;;19.42;9.63;;;;;;;;;;4988383;28;20382;-69
2023/12/14 08:53:08;;;;;;;18.13;9.32;;;;;;;;;;4988255;28;20484;-70
2023/12/14 08:55:34;;;;;;;21.15;10.02;;;;;;;;;;4987902;28;20135;-70
2023/12/14 08:58:00;;;;;;;22.15;9.77;;;;;;;;;;5004903;28;20127;-69
2023/12/14 09:00:26;;;;;;;19.52;10.30;;;;;;;;;;5005616;28;20085;-69
2023/12/14 09:02:52;;;;;;;23.27;11.82;;;;;;;;;;5005558;28;20180;-70
2023/12/14 09:05:20;;;;;;;22.50;11.57;;;;;;;;;;4987445;28;20080;-71
2023/12/14 09:07:46;;;;;;;20.77;10.07;;;;;;;;;;4987311;28;20535;-71
2023/12/14 09:10:13;;;;;;;17.35;10.23;;;;;;;;;;5004654;28;20038;-69
2023/12/14 09:12:39;;;;;;;18.63;10.25;;;;;;;;;;4985585;28;21374;-71
2023/12/14 09:15:05;;;;;;;22.45;9.60;;;;;;;;;;4982463;28;20062;-69
2023/12/14 09:17:34;;;;;;;19.40;9.73;;;;;;;;;;4970131;28;20049;-69
2023/12/14 09:20:01;;;;;;;16.05;10.02;;;;;;;;;;4987242;28;20054;-69
2023/12/14 09:22:27;;;;;;;21.23;9.55;;;;;;;;;;5002238;28;20785;-69
2023/12/14 09:24:52;;;;;;;21.88;10.00;;;5.70;99.90;;;;;;4986070;28;20050;-69
2023/12/14 09:27:18;;;;;;;16.30;10.38;;;;;;;;;;4968858;28;20050;-69
2023/12/14 09:29:44;;;;;;;21.15;9.77;;;;;;;;;;5004814;28;20768;-69
2023/12/14 09:32:11;;;;;;;18.45;10.45;;;;;;;;;;4983594;28;20073;-70
2023/12/14 09:34:37;;;;;;;18.52;9.52;;;;;;;;;;4986037;28;20053;-69
2023/12/14 09:37:03;;;;;;;19.08;9.38;;;;;;;;;;4984890;28;20108;-70
2023/12/14 09:39:29;;;;;;;15.82;9.02;;;;;;;;;;4986392;28;20060;-71
2023/12/14 09:42:05;;;;;;;18.58;9.88;;;;;;;;;;4985043;28;20061;-69
2023/12/14 09:44:32;;;;;;;15.50;9.40;;;;;;;;;;4969500;28;20497;-69
2023/12/14 09:46:59;;;;;;;17.25;9.93;;;;;;;;;;4986892;28;20124;-69
2023/12/14 09:49:30;;;;;;;20.63;9.75;;;;;;;;;;5005220;28;20042;-69
2023/12/14 09:51:59;;;;;;;16.38;9.05;;;;;;;;;;4987385;28;20049;-69
2023/12/14 09:54:25;;;;;;;20.48;10.07;;;;;;;;;;4986454;28;20786;-69
2023/12/14 09:56:52;;;;;;;16.48;9.23;;;;;;;;;;5004539;28;20580;-69
2023/12/14 09:59:19;;;;;;;19.73;9.82;;;;;;;;;;4986430;28;20060;-69
2023/12/14 10:01:45;;;;;;;20.58;10.63;;;;;;;;;;5004448;28;20073;-69
2023/12/14 10:04:15;;;;;;;19.30;10.55;;;;;;;;;;4996785;28;20063;-69
2023/12/14 10:06:42;;;;;;;17.40;9.35;;;;;;;;;;5003615;28;20045;-69
2023/12/14 10:09:09;;;;;;;19.85;10.07;;;;;;;;;;4983365;28;20409;-69
2023/12/14 10:11:36;;;;;;;23.50;11.07;;;;;;;;;;4966816;28;20046;-69
2023/12/14 10:14:03;;;;;;;17.02;9.60;;;;;;;;;;4986017;28;20092;-69
2023/12/14 10:16:30;;;;;;;20.60;10.07;;;;;;;;;;5004234;28;20057;-69
2023/12/14 10:18:58;;;;;;;14.38;9.25;;;;;;;;;;4987152;28;20045;-69
2023/12/14 10:21:25;;;;;;;18.27;9.48;;;;;;;;;;4969344;28;20042;-68
2023/12/14 10:23:51;;;;;;;26.65;9.57;;;;;;;;;;4987777;28;20049;-69
2023/12/14 10:26:17;;;;;;;16.90;9.93;;;;;;;;;;4969832;28;20471;-68
2023/12/14 10:28:43;;;;;;;16.50;9.57;;;;;;;;;;4969017;28;20096;-69
2023/12/14 10:31:10;;;;;;;20.13;10.02;;;;;;;;;;5002871;28;20049;-69
2023/12/14 10:33:36;;;;;;;18.08;9.43;;;;;;;;;;4985533;28;20054;-68
2023/12/14 10:36:02;;;;;;;15.98;8.90;;;;;;;;;;4984970;28;20050;-69
2023/12/14 10:38:30;;;;;;;18.08;9.80;;;;;;;;;;4981629;28;20042;-69
2023/12/14 10:40:57;;;;;;;16.40;9.13;;;6.50;99.90;;;;;;5002253;28;20235;-69
2023/12/14 10:43:23;;;;;;;16.88;9.75;;;;;;;;;;4980354;28;20781;-69
2023/12/14 10:45:49;;;;;;;20.65;10.18;;;;;;;;;;4985059;28;20100;-69
2023/12/14 10:48:20;;;;;;;19.25;10.15;;;;;;;;;;4982357;28;20053;-70
2023/12/14 10:50:48;;;;;;;14.15;8.70;;;6.30;99.90;;;;;;5003736;28;20058;-69
2023/12/14 10:53:14;;;;;;;16.13;9.48;;;;;;;;;;4981810;28;20065;-69
2023/12/14 10:55:44;;;;;;;18.40;9.68;;;;;;;;;;4984522;28;20543;-69
2023/12/14 10:58:11;;;;;;;21.33;9.40;;;;;;;;;;4985711;28;20125;-69
2023/12/14 11:00:37;;;;;;;18.65;9.57;;;6.50;99.90;;;;;;4982655;28;20082;-69
2023/12/14 11:03:06;;;;;;;18.27;8.63;;;;;;;;;;5003716;28;20448;-69
2023/12/14 11:05:33;;;;;;;18.67;9.68;;;;;;;;;;4967976;28;20050;-69
2023/12/14 11:08:03;;;;;;;18.05;9.82;;;;;;;;;;4982582;28;20046;-69
2023/12/14 11:10:37;;;;;;;19.70;8.85;;;;;;;;;;4978207;28;20405;-69
2023/12/14 11:13:04;;;;;;;16.60;8.80;;;;;;;;;;4997189;28;20042;-69
2023/12/14 11:15:33;;;;;;;16.35;8.65;;;;;;;;;;4984746;28;20068;-69
2023/12/14 11:18:08;;;;;;;15.88;8.68;;;;;;;;;;4964124;28;20447;-69
2023/12/14 11:20:54;;;;;;;13.93;8.77;;;;;;;;;;4985653;28;20133;-69
2023/12/14 11:23:26;;;;;;;17.48;8.55;;;;;;;;;;4973425;28;20049;-69
2023/12/14 11:25:53;;;;;;;15.48;9.90;;;;;;;;;;4984597;28;20147;-69
2023/12/14 11:28:19;;;;;;;16.17;8.55;;;;;;;;;;4984741;28;20042;-69
2023/12/14 11:30:46;;;;;;;13.32;8.40;;;;;;;;;;4983743;28;20038;-69
2023/12/14 11:33:15;;;;;;;15.73;9.07;;;;;;;;;;5001393;28;20872;-69
2023/12/14 11:35:41;;;;;;;16.48;9.15;;;;;;;;;;5002700;28;20060;-69
2023/12/14 11:38:12;;;;;;;13.35;8.55;;;;;;;;;;5002512;28;20054;-69
2023/12/14 11:40:39;;;;;;;15.07;8.80;;;;;;;;;;4984906;28;20046;-70
2023/12/14 11:43:09;;;;;;;14.23;10.25;;;;;;;;;;4985329;28;20065;-69
2023/12/14 11:45:36;;;;;;;14.88;9.43;;;;;;;;;;4985253;28;20050;-69
2023/12/14 11:48:04;;;;;;;14.90;8.90;;;;;;;;;;4985151;28;20112;-69
2023/12/14 11:50:31;;;;;;;11.98;7.78;;;;;;;;;;4986208;28;20120;-69
2023/12/14 11:52:57;;;;;;;18.13;8.77;;;;;;;;;;5006615;28;20048;-69
2023/12/14 11:55:23;;;;;;;12.43;7.97;;;;;;;;;;5006497;28;20077;-69
2023/12/14 11:57:49;;;;;;;16.13;9.20;;;;;;;;;;4987713;28;20132;-69
2023/12/14 12:00:16;;;;;;;15.93;8.50;;;;;;;;;;4988576;28;20658;-69
2023/12/14 12:02:42;;;;;;;14.90;9.07;;;;;;;;;;4988927;28;20069;-69
2023/12/14 12:05:08;;;;;;;13.07;8.77;;;;;;;;;;4985747;28;20057;-69
2023/12/14 12:07:34;;;;;;;16.60;9.95;;;;;;;;;;5003858;28;20108;-69
2023/12/14 12:10:00;;;;;;;13.27;8.25;;;;;;;;;;4987063;28;20662;-69
2023/12/14 12:12:26;;;;;;;15.73;8.93;;;;;;;;;;5006753;28;20145;-69
2023/12/14 12:14:53;;;;;;;15.85;9.20;;;;;;;;;;4988131;28;20054;-69
2023/12/14 12:17:19;;;;;;;15.48;8.35;;;;;;;;;;4988654;28;20046;-70
2023/12/14 12:19:46;;;;;;;14.02;8.95;;;;;;;;;;4987782;28;20046;-69
2023/12/14 12:22:12;;;;;;;11.25;7.57;;;;;;;;;;5006606;28;20041;-69
2023/12/14 12:24:38;;;;;;;11.80;8.38;;;;;;;;;;4988384;28;20161;-69
2023/12/14 12:27:04;;;;;;;13.95;8.35;;;;;;;;;;5006446;28;20680;-69
2023/12/14 12:29:30;;;;;;;14.20;8.68;;;;;;;;;;4967888;28;20497;-69
2023/12/14 12:31:56;;;;;;;16.13;8.38;;;;;;;;;;4986098;28;20524;-69
2023/12/14 12:34:22;;;;;;;15.50;8.90;;;;;;;;;;4987448;28;21168;-69
2023/12/14 12:36:48;;;;;;;16.52;9.07;;;;;;;;;;5005685;28;20045;-69
2023/12/14 12:39:14;;;;;;;18.02;10.43;;;;;;;;;;4987761;28;20049;-69
2023/12/14 12:41:40;;;;;;;17.67;9.90;;;;;;;;;;5005936;28;20042;-69
2023/12/14 12:44:07;;;;;;;15.85;9.70;;;;;;;;;;4987947;28;20056;-69
2023/12/14 12:46:34;;;;;;;13.95;8.63;;;;;;;;;;4983639;28;20761;-69
2023/12/14 12:49:01;;;;;;;16.63;9.48;;;;;;;;;;4988036;28;20046;-69
2023/12/14 12:51:27;;;;;;;15.68;9.55;;;;;;;;;;5005324;28;20037;-70
2023/12/14 12:53:54;;;;;;;14.40;9.52;;;;;;;;;;4987173;28;20080;-70
2023/12/14 12:56:20;;;;;;;14.00;9.02;;;;;;;;;;4987725;28;20049;-70
2023/12/14 12:58:46;;;;;;;18.20;10.73;;;;;;;;;;5003392;28;20490;-70
2023/12/14 13:01:12;;;;;;;16.90;9.48;;;;;;;;;;4987140;28;20144;-70
2023/12/14 13:03:38;;;;;;;18.50;9.20;;;;;;;;;;4987030;28;20136;-70
2023/12/14 13:06:04;;;;;;;14.60;9.10;;;;;;;;;;4987231;28;20468;-70
2023/12/14 13:08:30;;;;;;;13.93;9.23;;;;;;;;;;4988050;28;20125;-70
2023/12/14 13:10:56;;;;;;;21.42;10.85;;;;;;;;;;4987484;28;20054;-70
2023/12/14 13:13:23;;;;;;;14.00;8.48;;;;;;;;;;4986908;28;20152;-70
2023/12/14 13:15:49;;;;;;;14.80;9.95;;;;;;;;;;5004606;28;20049;-70
2023/12/14 13:18:16;;;;;;;16.35;10.10;;;;;;;;;;4987206;28;20061;-70
2023/12/14 13:20:42;;;;;;;14.95;9.68;;;;;;;;;;4987213;28;20698;-70
2023/12/14 13:23:08;;;;;;;17.20;9.77;;;;;;;;;;4986737;28;20037;-70
2023/12/14 13:25:35;;;;;;;22.30;10.50;;;;;;;;;;5003148;28;20042;-70
2023/12/14 13:28:01;;;;;;;16.05;9.32;;;;;;;;;;4987275;28;20714;-70
2023/12/14 13:30:28;;;;;;;15.90;9.60;;;;;;;;;;4985512;28;20480;-70
2023/12/14 13:32:54;;;;;;;17.33;9.98;;;;;;;;;;4980934;28;20434;-70
2023/12/14 13:35:20;;;;;;;16.45;9.70;;;;;;;;;;4980005;28;20050;-70
2023/12/14 13:37:46;;;;;;;16.95;10.80;;;;;;;;;;4986397;28;20088;-70
2023/12/14 13:40:12;;;;;;;14.65;9.88;;;;;;;;;;4999579;28;20727;-70
2023/12/14 13:42:38;;;;;;;17.92;9.98;;;;;;;;;;4984883;28;20073;-70
2023/12/14 13:45:05;;;;;;;16.58;9.90;;;;;;;;;;4986784;28;20045;-70
2023/12/14 13:47:31;;;;;;;18.63;10.18;;;;;;;;;;4985304;28;20125;-70
2023/12/14 13:49:57;;;;;;;16.75;10.60;;;;;;;;;;4986321;28;20045;-70
2023/12/14 13:52:23;;;;;;;17.38;10.32;;;;;;;;;;5004322;28;20046;-70
2023/12/14 13:54:49;;;;;;;16.63;9.68;;;;;;;;;;4985933;28;20042;-69
2023/12/14 13:57:15;;;;;;;15.50;9.70;;;;;;;;;;4986142;28;20064;-70
2023/12/14 13:59:41;;;;;;;17.85;9.20;;;;;;;;;;5004204;28;20058;-70
2023/12/14 14:02:07;;;;;;;14.20;9.48;;;;;;;;;;4986442;28;20049;-70
2023/12/14 14:04:33;;;;;;;14.38;9.80;;;;;;;;;;4985669;28;20104;-70
2023/12/14 14:06:59;;;;;;;17.55;9.27;;;;;;;;;;5004033;28;21502;-70
2023/12/14 14:09:25;;;;;;;18.17;10.40;;;;;;;;;;4985870;28;20104;-70
2023/12/14 14:11:51;;;;;;;13.35;8.85;;;;;;;;;;4985224;28;20041;-70
2023/12/14 14:14:18;;;;;;;17.90;9.75;;;;;;;;;;4985782;28;20053;-70
2023/12/14 14:16:43;;;;;;;17.42;10.82;;;;;;;;;;4998584;28;20089;-70
2023/12/14 14:19:10;;;;;;;15.23;9.40;;;;;;;;;;5004012;28;20138;-70
2023/12/14 14:21:36;;;;;;;17.17;9.68;;;;;;;;;;4985654;28;20177;-70